createdAt,value
2018-05-13T00:00:28.088Z,15.03
2018-05-13T00:02:56.030Z,16.93
2018-05-13T00:05:24.111Z,17.30
2018-05-13T00:07:52.047Z,19.47
2018-05-13T00:10:20.000Z,16.27
2018-05-13T00:12:47.922Z,14.47
2018-05-13T00:15:15.847Z,15.73
2018-05-13T00:17:44.492Z,15.73
2018-05-13T00:20:12.503Z,16.97
2018-05-13T00:22:40.537Z,17.93
2018-05-13T00:25:08.466Z,18.47
2018-05-13T00:27:36.481Z,17.80
2018-05-13T00:30:04.425Z,17.17
2018-05-13T00:32:32.383Z,17.27
2018-05-13T00:35:00.424Z,16.40
2018-05-13T00:37:28.539Z,17.37
2018-05-13T00:39:56.475Z,20.93
2018-05-13T00:42:24.474Z,19.10
2018-05-13T00:44:52.416Z,18.40
2018-05-13T00:47:20.390Z,16.43
2018-05-13T00:49:49.016Z,19.97
2018-05-13T00:52:17.007Z,15.90
2018-05-13T00:54:51.738Z,15.70
2018-05-13T00:57:19.716Z,17.03
2018-05-13T00:59:47.716Z,18.50
2018-05-13T01:02:15.676Z,18.27
2018-05-13T01:04:43.628Z,17.10
2018-05-13T01:07:11.578Z,23.30
2018-05-13T01:09:39.624Z,17.37
2018-05-13T01:12:07.623Z,21.40
2018-05-13T01:14:35.606Z,17.53
2018-05-13T01:17:03.535Z,16.03
2018-05-13T01:19:31.485Z,18.20
2018-05-13T01:21:59.411Z,17.90
2018-05-13T01:24:27.322Z,17.97
2018-05-13T01:26:55.269Z,15.90
2018-05-13T01:29:23.209Z,18.10
2018-05-13T01:31:51.247Z,18.70
2018-05-13T01:34:19.250Z,18.63
2018-05-13T01:36:47.273Z,18.37
2018-05-13T01:39:15.303Z,16.57
2018-05-13T01:41:43.260Z,20.13
2018-05-13T01:44:11.183Z,17.63
2018-05-13T01:46:39.200Z,20.03
2018-05-13T01:49:07.111Z,18.33
2018-05-13T01:51:35.082Z,20.60
2018-05-13T01:54:03.001Z,19.90
2018-05-13T01:56:31.016Z,20.93
2018-05-13T01:58:58.997Z,18.33
2018-05-13T02:01:27.121Z,20.40
2018-05-13T02:03:55.056Z,21.37
2018-05-13T02:06:23.000Z,20.53
2018-05-13T02:08:50.919Z,19.77
2018-05-13T02:11:19.441Z,20.67
2018-05-13T02:13:47.347Z,20.33
2018-05-13T02:16:15.286Z,21.20
2018-05-13T02:18:43.498Z,17.57
2018-05-13T02:21:11.392Z,20.57
2018-05-13T02:23:39.351Z,20.03
2018-05-13T02:26:07.291Z,21.40
2018-05-13T02:28:35.207Z,21.17
2018-05-13T02:31:03.128Z,20.50
2018-05-13T02:33:31.308Z,19.67
2018-05-13T02:35:59.245Z,20.30
2018-05-13T02:38:27.958Z,19.00
2018-05-13T02:40:55.930Z,19.80
2018-05-13T02:43:23.930Z,20.80
2018-05-13T02:45:51.916Z,18.93
2018-05-13T02:48:19.931Z,25.93
2018-05-13T02:50:47.821Z,20.83
2018-05-13T02:53:15.865Z,23.40
2018-05-13T02:55:43.777Z,20.93
2018-05-13T02:58:11.771Z,22.17
2018-05-13T03:00:39.786Z,21.57
2018-05-13T03:03:07.699Z,20.10
2018-05-13T03:05:36.168Z,21.90
2018-05-13T03:08:04.106Z,24.03
2018-05-13T03:10:32.035Z,20.40
2018-05-13T03:13:00.054Z,21.97
2018-05-13T03:15:27.976Z,19.37
2018-05-13T03:17:55.907Z,22.13
2018-05-13T03:20:23.860Z,20.67
2018-05-13T03:22:51.853Z,21.40
2018-05-13T03:25:19.863Z,21.67
2018-05-13T03:27:47.780Z,20.93
2018-05-13T03:30:15.755Z,22.83
2018-05-13T03:32:43.705Z,19.90
2018-05-13T03:35:11.643Z,25.23
2018-05-13T03:37:39.618Z,23.13
2018-05-13T03:40:07.552Z,23.80
2018-05-13T03:42:35.555Z,22.00
2018-05-13T03:45:03.511Z,23.30
2018-05-13T03:47:31.439Z,23.10
2018-05-13T03:49:59.373Z,21.40
2018-05-13T03:52:27.352Z,25.70
2018-05-13T03:54:55.264Z,29.70
2018-05-13T03:57:23.296Z,21.60
2018-05-13T03:59:51.255Z,25.60
2018-05-13T04:02:19.212Z,23.27
2018-05-13T04:04:47.134Z,21.20
2018-05-13T04:07:15.106Z,26.67
2018-05-13T04:09:54.774Z,24.77
2018-05-13T04:12:34.377Z,27.53
2018-05-13T04:15:23.719Z,23.67
2018-05-13T04:17:51.667Z,30.00
2018-05-13T04:20:19.598Z,24.93
2018-05-13T04:22:47.568Z,24.20
2018-05-13T04:25:15.505Z,29.43
2018-05-13T04:27:43.510Z,27.87
2018-05-13T04:30:11.495Z,26.97
2018-05-13T04:32:39.416Z,28.83
2018-05-13T04:35:07.380Z,28.07
2018-05-13T04:37:35.305Z,27.37
2018-05-13T04:40:03.250Z,28.57
2018-05-13T04:42:31.194Z,28.87
2018-05-13T04:44:59.172Z,25.47
2018-05-13T04:47:27.256Z,27.20
2018-05-13T04:49:55.198Z,27.10
2018-05-13T04:52:23.145Z,23.03
2018-05-13T04:54:51.055Z,25.97
2018-05-13T04:57:19.047Z,27.47
2018-05-13T04:59:47.241Z,28.27
2018-05-13T05:02:15.191Z,29.93
2018-05-13T05:04:43.175Z,26.77
2018-05-13T05:07:11.108Z,27.23
2018-05-13T05:09:39.247Z,25.57
2018-05-13T05:12:07.294Z,26.40
2018-05-13T05:14:36.089Z,28.03
2018-05-13T05:17:04.185Z,27.77
2018-05-13T05:19:32.756Z,27.83
2018-05-13T05:22:00.738Z,26.17
2018-05-13T05:24:28.688Z,25.40
2018-05-13T05:26:56.804Z,26.83
2018-05-13T05:29:24.740Z,29.37
2018-05-13T05:31:52.728Z,27.63
2018-05-13T05:34:20.740Z,27.10
2018-05-13T05:36:48.710Z,26.93
2018-05-13T05:39:16.658Z,27.70
2018-05-13T05:41:44.682Z,28.43
2018-05-13T05:44:12.594Z,30.67
2018-05-13T05:46:40.529Z,27.97
2018-05-13T05:49:08.469Z,31.63
2018-05-13T05:51:36.402Z,29.07
2018-05-13T05:54:04.344Z,28.10
2018-05-13T05:56:32.296Z,31.40
2018-05-13T05:59:00.251Z,30.10
2018-05-13T06:01:28.256Z,31.50
2018-05-13T06:03:56.221Z,31.23
2018-05-13T06:06:24.171Z,34.03
2018-05-13T06:08:52.212Z,34.40
2018-05-13T06:11:20.131Z,33.23
2018-05-13T06:13:48.083Z,31.47
2018-05-13T06:16:16.767Z,33.87
2018-05-13T06:18:44.681Z,33.03
2018-05-13T06:21:12.749Z,31.10
2018-05-13T06:23:42.824Z,32.87
2018-05-13T06:26:10.784Z,30.90
2018-05-13T06:28:38.706Z,32.30
2018-05-13T06:31:06.630Z,34.37
2018-05-13T06:33:34.568Z,28.70
2018-05-13T06:36:02.583Z,33.33
2018-05-13T06:38:31.351Z,32.33
2018-05-13T06:40:59.270Z,36.20
2018-05-13T06:43:27.733Z,31.70
2018-05-13T06:45:55.664Z,32.80
2018-05-13T06:48:24.201Z,34.23
2018-05-13T06:50:52.132Z,33.10
2018-05-13T06:53:20.056Z,30.43
2018-05-13T06:55:47.990Z,30.40
2018-05-13T06:58:16.090Z,29.93
2018-05-13T07:00:44.058Z,29.23
2018-05-13T07:03:11.967Z,29.00
2018-05-13T07:05:40.607Z,27.57
2018-05-13T07:08:08.544Z,27.80
2018-05-13T07:10:36.474Z,27.20
2018-05-13T07:13:04.408Z,25.23
2018-05-13T07:15:32.615Z,26.60
2018-05-13T07:18:00.615Z,28.53
2018-05-13T07:20:28.627Z,28.50
2018-05-13T07:22:56.565Z,25.33
2018-05-13T07:25:24.544Z,25.33
2018-05-13T07:27:52.553Z,24.80
2018-05-13T07:30:20.469Z,25.73
2018-05-13T07:32:48.559Z,24.20
2018-05-13T07:35:16.475Z,24.60
2018-05-13T07:40:17.708Z,25.93
2018-05-13T07:42:45.673Z,25.40
2018-05-13T07:45:13.612Z,25.30
2018-05-13T07:47:41.577Z,24.63
2018-05-13T07:50:09.538Z,25.57
2018-05-13T07:52:37.475Z,24.73
2018-05-13T07:55:05.523Z,26.27
2018-05-13T07:57:33.547Z,25.80
2018-05-13T08:00:01.484Z,27.63
2018-05-13T08:02:29.516Z,23.33
2018-05-13T08:04:57.442Z,25.87
2018-05-13T08:07:25.533Z,26.90
2018-05-13T08:09:53.664Z,29.17
2018-05-13T08:12:21.578Z,25.40
2018-05-13T08:14:49.558Z,26.03
2018-05-13T08:17:17.656Z,25.70
2018-05-13T08:19:45.837Z,25.47
2018-05-13T08:22:13.867Z,25.07
2018-05-13T08:24:41.769Z,26.83
2018-05-13T08:27:09.702Z,27.47
2018-05-13T08:29:37.718Z,27.40
2018-05-13T08:32:05.681Z,24.00
2018-05-13T08:34:33.607Z,23.20
2018-05-13T08:37:01.558Z,24.43
2018-05-13T08:39:29.665Z,22.40
2018-05-13T08:41:58.346Z,22.50
2018-05-13T08:44:26.323Z,22.10
2018-05-13T08:46:54.399Z,23.70
2018-05-13T08:49:22.418Z,19.33
2018-05-13T08:51:50.387Z,20.77
2018-05-13T08:54:18.323Z,19.30
2018-05-13T08:56:46.294Z,17.83
2018-05-13T08:59:14.325Z,16.13
2018-05-13T09:01:42.567Z,15.87
2018-05-13T09:04:10.528Z,15.17
2018-05-13T09:06:38.447Z,15.50
2018-05-13T09:09:06.442Z,17.60
2018-05-13T09:11:34.480Z,15.60
2018-05-13T09:14:02.518Z,16.33
2018-05-13T09:16:30.583Z,13.87
2018-05-13T09:18:58.557Z,13.17
2018-05-13T09:21:26.577Z,13.77
2018-05-13T09:23:54.475Z,12.17
2018-05-13T09:26:22.546Z,11.63
2018-05-13T09:28:50.551Z,10.07
2018-05-13T09:31:18.483Z,11.67
2018-05-13T09:33:46.431Z,12.33
2018-05-13T09:36:14.351Z,9.87
2018-05-13T09:38:42.371Z,9.70
2018-05-13T09:41:10.330Z,8.00
2018-05-13T09:43:38.280Z,6.97
2018-05-13T09:46:06.317Z,8.13
2018-05-13T09:48:34.291Z,6.20
2018-05-13T09:51:02.538Z,7.30
2018-05-13T09:53:30.601Z,7.70
2018-05-13T09:55:58.561Z,6.30
2018-05-13T09:58:26.412Z,6.00
2018-05-13T10:00:54.424Z,7.63
2018-05-13T10:03:22.334Z,8.60
2018-05-13T10:05:50.294Z,6.50
2018-05-13T10:08:18.255Z,8.37
2018-05-13T10:10:46.154Z,5.40
2018-05-13T10:13:14.119Z,6.20
2018-05-13T10:15:42.098Z,6.33
2018-05-13T10:18:10.102Z,9.13
2018-05-13T10:20:38.026Z,8.87
2018-05-13T10:23:06.024Z,7.33
2018-05-13T10:25:34.011Z,7.40
2018-05-13T10:28:02.508Z,5.40
2018-05-13T10:30:30.499Z,7.00
2018-05-13T10:32:58.494Z,6.23
2018-05-13T10:35:26.563Z,5.70
2018-05-13T10:37:54.483Z,7.53
2018-05-13T10:40:22.408Z,7.27
2018-05-13T10:42:50.318Z,9.87
2018-05-13T10:45:18.325Z,8.00
2018-05-13T10:47:46.255Z,6.27
2018-05-13T10:50:14.222Z,6.70
2018-05-13T10:52:42.140Z,5.90
2018-05-13T10:55:10.094Z,6.47
2018-05-13T10:57:38.024Z,6.00
2018-05-13T11:00:05.972Z,6.30
2018-05-13T11:02:33.891Z,7.70
2018-05-13T11:05:01.844Z,7.23
2018-05-13T11:07:29.777Z,7.87
2018-05-13T11:09:57.681Z,6.80
2018-05-13T11:12:25.614Z,6.83
2018-05-13T11:14:53.537Z,6.87
2018-05-13T11:17:21.515Z,6.70
2018-05-13T11:19:49.405Z,7.03
2018-05-13T11:22:17.359Z,8.00
2018-05-13T11:24:45.275Z,7.03
2018-05-13T11:27:13.393Z,6.90
2018-05-13T11:29:41.319Z,8.23
2018-05-13T11:32:09.280Z,9.87
2018-05-13T11:34:37.213Z,5.77
2018-05-13T11:37:05.220Z,7.77
2018-05-13T11:39:33.180Z,7.73
2018-05-13T11:42:01.124Z,7.83
2018-05-13T11:44:29.182Z,8.87
2018-05-13T11:46:57.202Z,5.87
2018-05-13T11:49:25.102Z,8.43
2018-05-13T11:51:53.026Z,6.13
2018-05-13T11:54:21.726Z,11.60
2018-05-13T11:56:49.723Z,6.37
2018-05-13T11:59:17.643Z,7.63
2018-05-13T12:01:45.600Z,15.10
2018-05-13T12:04:13.573Z,8.30
2018-05-13T12:06:41.674Z,8.97
2018-05-13T12:09:09.700Z,8.47
2018-05-13T12:11:37.662Z,6.27
2018-05-13T12:14:05.583Z,7.00
2018-05-13T12:16:33.515Z,9.27
2018-05-13T12:19:02.235Z,6.40
2018-05-13T12:21:30.237Z,8.00
2018-05-13T12:23:58.151Z,9.87
2018-05-13T12:26:26.169Z,7.80
2018-05-13T12:28:54.281Z,5.70
2018-05-13T12:31:22.106Z,6.93
2018-05-13T12:33:50.015Z,7.03
2018-05-13T12:36:18.084Z,6.57
2018-05-13T12:38:46.006Z,6.17
2018-05-13T12:41:13.923Z,7.57
2018-05-13T12:43:41.871Z,5.23
2018-05-13T12:46:09.888Z,6.97
2018-05-13T12:48:37.933Z,8.97
2018-05-13T12:51:05.888Z,8.03
2018-05-13T12:53:33.875Z,6.13
2018-05-13T12:56:01.821Z,7.07
2018-05-13T12:58:29.770Z,10.10
2018-05-13T13:00:57.714Z,5.47
2018-05-13T13:03:25.663Z,6.57
2018-05-13T13:05:53.628Z,10.10
2018-05-13T13:08:21.555Z,6.87
2018-05-13T13:10:49.531Z,9.30
2018-05-13T13:13:17.429Z,6.10
2018-05-13T13:15:45.399Z,11.20
2018-05-13T13:18:13.376Z,6.60
2018-05-13T13:20:41.278Z,7.23
2018-05-13T13:23:09.220Z,18.60
2018-05-13T13:25:37.445Z,8.50
2018-05-13T13:28:05.411Z,6.93
2018-05-13T13:30:33.353Z,7.80
2018-05-13T13:33:01.339Z,6.53
2018-05-13T13:35:29.221Z,7.00
2018-05-13T13:37:57.143Z,6.70
2018-05-13T13:40:25.095Z,12.03
2018-05-13T13:42:53.024Z,9.20
2018-05-13T13:45:21.030Z,7.70
2018-05-13T13:47:49.080Z,6.47
2018-05-13T13:50:17.005Z,11.30
2018-05-13T13:52:44.933Z,5.80
2018-05-13T13:55:12.868Z,6.03
2018-05-13T13:57:40.774Z,8.07
2018-05-13T14:00:08.704Z,9.40
2018-05-13T14:02:36.607Z,6.57
2018-05-13T14:05:04.576Z,9.80
2018-05-13T14:07:32.540Z,7.60
2018-05-13T14:10:00.459Z,8.00
2018-05-13T14:12:28.357Z,8.70
2018-05-13T14:14:56.295Z,5.33
2018-05-13T14:17:24.235Z,7.50
2018-05-13T14:19:52.151Z,7.43
2018-05-13T14:22:20.668Z,7.20
2018-05-13T14:24:48.647Z,5.23
2018-05-13T14:27:16.682Z,5.97
2018-05-13T14:29:44.685Z,5.53
2018-05-13T14:32:12.698Z,6.43
2018-05-13T14:34:40.662Z,8.30
2018-05-13T14:37:09.211Z,6.90
2018-05-13T14:39:37.184Z,5.73
2018-05-13T14:42:05.102Z,7.90
2018-05-13T14:44:33.143Z,7.07
2018-05-13T14:47:01.060Z,12.50
2018-05-13T14:49:29.006Z,6.00
2018-05-13T14:51:56.908Z,6.80
2018-05-13T14:54:24.820Z,6.90
2018-05-13T14:56:52.732Z,8.93
2018-05-13T14:59:20.665Z,5.17
2018-05-13T15:01:48.631Z,7.87
2018-05-13T15:04:16.571Z,8.90
2018-05-13T15:06:44.618Z,6.20
2018-05-13T15:09:12.684Z,4.37
2018-05-13T15:11:40.593Z,5.93
2018-05-13T15:14:08.535Z,6.53
2018-05-13T15:16:36.469Z,4.27
2018-05-13T15:19:04.419Z,4.63
2018-05-13T15:21:32.431Z,5.67
2018-05-13T15:24:00.349Z,6.20
2018-05-13T15:26:28.263Z,4.70
2018-05-13T15:28:56.339Z,5.63
2018-05-13T15:31:24.219Z,4.90
2018-05-13T15:33:52.124Z,8.93
2018-05-13T15:36:20.037Z,8.10
2018-05-13T15:38:47.946Z,4.40
2018-05-13T15:41:15.905Z,4.40
2018-05-13T15:43:43.797Z,4.97
2018-05-13T15:46:11.721Z,5.33
2018-05-13T15:48:39.633Z,5.43
2018-05-13T15:51:07.575Z,6.90
2018-05-13T15:53:35.493Z,6.57
2018-05-13T15:56:03.510Z,5.10
2018-05-13T15:58:31.511Z,6.10
2018-05-13T16:00:59.447Z,4.33
2018-05-13T16:03:27.375Z,4.60
2018-05-13T16:05:55.316Z,7.73
2018-05-13T16:08:23.368Z,6.67
2018-05-13T16:10:51.281Z,7.80
2018-05-13T16:13:19.339Z,7.80
2018-05-13T16:15:47.248Z,4.83
2018-05-13T16:18:15.175Z,12.70
2018-05-13T16:20:43.107Z,4.83
2018-05-13T16:23:11.120Z,7.20
2018-05-13T16:25:39.036Z,9.30
2018-05-13T16:28:06.965Z,11.93
2018-05-13T16:30:34.911Z,6.27
2018-05-13T16:33:02.832Z,7.87
2018-05-13T16:35:30.821Z,8.93
2018-05-13T16:37:58.731Z,6.23
2018-05-13T16:40:26.667Z,6.90
2018-05-13T16:42:54.597Z,8.17
2018-05-13T16:45:22.556Z,7.93
2018-05-13T16:47:50.488Z,4.87
2018-05-13T16:50:18.417Z,9.30
2018-05-13T16:52:46.483Z,6.60
2018-05-13T16:55:14.436Z,4.47
2018-05-13T16:57:42.363Z,4.30
2018-05-13T17:00:10.353Z,6.30
2018-05-13T17:02:38.365Z,6.23
2018-05-13T17:05:06.437Z,8.57
2018-05-13T17:07:34.574Z,5.87
2018-05-13T17:10:02.488Z,5.23
2018-05-13T17:12:30.400Z,6.10
2018-05-13T17:14:58.682Z,9.10
2018-05-13T17:17:26.635Z,7.87
2018-05-13T17:19:54.579Z,8.73
2018-05-13T17:22:22.541Z,11.00
2018-05-13T17:24:50.463Z,6.47
2018-05-13T17:27:18.375Z,7.17
2018-05-13T17:29:46.393Z,10.53
2018-05-13T17:32:14.351Z,5.97
2018-05-13T17:34:42.324Z,12.43
2018-05-13T17:37:10.312Z,5.90
2018-05-13T17:39:38.262Z,6.27
2018-05-13T17:42:06.294Z,7.13
2018-05-13T17:44:34.236Z,5.23
2018-05-13T17:47:02.162Z,7.93
2018-05-13T17:49:30.404Z,5.13
2018-05-13T17:51:58.608Z,9.07
2018-05-13T17:54:26.551Z,11.83
2018-05-13T17:56:54.471Z,9.10
2018-05-13T17:59:22.490Z,8.03
2018-05-13T18:01:50.459Z,6.03
2018-05-13T18:04:18.364Z,6.70
2018-05-13T18:06:46.268Z,5.70
2018-05-13T18:09:14.233Z,7.43
2018-05-13T18:11:42.217Z,5.77
2018-05-13T18:14:10.094Z,6.30
2018-05-13T18:16:38.134Z,9.27
2018-05-13T18:19:06.157Z,7.20
2018-05-13T18:21:34.329Z,7.23
2018-05-13T18:24:02.255Z,20.23
2018-05-13T18:26:30.167Z,6.57
2018-05-13T18:28:58.417Z,5.70
2018-05-13T18:31:26.432Z,6.53
2018-05-13T18:33:54.327Z,7.17
2018-05-13T18:36:22.371Z,5.70
2018-05-13T18:38:50.295Z,5.23
2018-05-13T18:41:18.220Z,6.83
2018-05-13T18:43:46.160Z,5.77
2018-05-13T18:46:14.075Z,4.93
2018-05-13T18:48:42.025Z,5.80
2018-05-13T18:51:09.991Z,4.90
2018-05-13T18:53:37.881Z,5.73
2018-05-13T18:56:05.818Z,4.90
2018-05-13T18:58:33.750Z,9.30
2018-05-13T19:01:01.703Z,6.23
2018-05-13T19:03:29.603Z,5.83
2018-05-13T19:05:57.549Z,5.00
2018-05-13T19:08:25.495Z,8.67
2018-05-13T19:10:53.483Z,7.30
2018-05-13T19:13:21.408Z,6.87
2018-05-13T19:15:49.300Z,6.33
2018-05-13T19:18:17.228Z,5.23
2018-05-13T19:20:45.281Z,6.50
2018-05-13T19:23:13.206Z,3.93
2018-05-13T19:25:41.128Z,5.07
2018-05-13T19:28:09.065Z,5.50
2018-05-13T19:30:37.004Z,5.97
2018-05-13T19:33:04.952Z,7.70
2018-05-13T19:35:32.936Z,5.03
2018-05-13T19:38:00.992Z,5.10
2018-05-13T19:40:28.907Z,6.57
2018-05-13T19:42:56.951Z,5.40
2018-05-13T19:45:24.877Z,5.50
2018-05-13T19:47:52.793Z,4.43
2018-05-13T19:50:20.699Z,7.23
2018-05-13T19:52:48.649Z,5.53
2018-05-13T19:55:16.800Z,6.47
2018-05-13T19:57:46.286Z,6.30
2018-05-13T20:00:14.359Z,6.67
2018-05-13T20:02:42.309Z,10.30
2018-05-13T20:05:10.243Z,4.60
2018-05-13T20:07:38.181Z,6.43
2018-05-13T20:10:06.284Z,5.83
2018-05-13T20:12:34.175Z,7.33
2018-05-13T20:15:02.135Z,5.83
2018-05-13T20:17:30.500Z,7.63
2018-05-13T20:19:58.425Z,7.17
2018-05-13T20:22:26.321Z,6.37
2018-05-13T20:24:54.308Z,8.20
2018-05-13T20:27:22.321Z,5.23
2018-05-13T20:29:50.288Z,76.47
2018-05-13T20:32:18.234Z,156.97
2018-05-13T20:34:46.151Z,83.50
2018-05-13T20:37:14.112Z,86.00
2018-05-13T20:39:42.904Z,117.00
2018-05-13T20:42:10.872Z,36.70
2018-05-13T20:44:38.930Z,158.93
2018-05-13T20:47:06.899Z,100.90
2018-05-13T20:49:34.883Z,96.57
2018-05-13T20:52:02.788Z,40.87
2018-05-13T20:54:30.821Z,23.93
2018-05-13T20:56:58.751Z,16.80
2018-05-13T20:59:26.816Z,112.23
2018-05-13T21:01:54.783Z,126.07
2018-05-13T21:04:22.759Z,149.37
2018-05-13T21:06:50.749Z,91.37
2018-05-13T21:09:18.839Z,67.37
2018-05-13T21:11:46.798Z,115.10
2018-05-13T21:14:14.828Z,144.17
2018-05-13T21:16:42.835Z,61.53
2018-05-13T21:19:10.780Z,47.30
2018-05-13T21:21:38.816Z,10.63
2018-05-13T21:24:06.754Z,17.50
2018-05-13T21:26:34.691Z,12.57
2018-05-13T21:29:02.818Z,7.83
2018-05-13T21:31:30.605Z,7.80
2018-05-13T21:33:58.525Z,7.73
2018-05-13T21:36:26.456Z,7.33
2018-05-13T21:38:54.361Z,10.83
2018-05-13T21:41:22.391Z,6.60
2018-05-13T21:43:50.429Z,8.30
2018-05-13T21:46:18.369Z,8.13
2018-05-13T21:48:46.574Z,8.33
2018-05-13T21:51:14.492Z,6.83
2018-05-13T21:53:43.034Z,6.60
2018-05-13T21:56:10.983Z,5.63
2018-05-13T21:58:38.982Z,9.20
2018-05-13T22:01:06.894Z,8.43
2018-05-13T22:03:34.829Z,10.90
2018-05-13T22:06:02.737Z,7.57
2018-05-13T22:08:30.688Z,10.03
2018-05-13T22:10:58.616Z,8.03
2018-05-13T22:13:26.905Z,7.90
2018-05-13T22:15:54.849Z,6.93
2018-05-13T22:18:22.800Z,9.00
2018-05-13T22:20:50.759Z,11.07
2018-05-13T22:23:18.738Z,7.77
2018-05-13T22:25:46.743Z,7.00
2018-05-13T22:28:14.614Z,7.30
2018-05-13T22:30:43.351Z,7.13
2018-05-13T22:33:11.391Z,9.27
2018-05-13T22:35:39.414Z,10.03
2018-05-13T22:38:07.481Z,8.60
2018-05-13T22:40:35.456Z,8.43
2018-05-13T22:43:03.405Z,7.80
2018-05-13T22:45:31.323Z,7.20
2018-05-13T22:47:59.243Z,9.70
2018-05-13T22:50:27.168Z,7.47
2018-05-13T22:52:55.102Z,7.60
2018-05-13T22:55:23.061Z,11.27
2018-05-13T22:57:51.202Z,6.90
2018-05-13T23:00:19.959Z,10.00
2018-05-13T23:02:47.891Z,7.50
2018-05-13T23:05:15.884Z,13.23
2018-05-13T23:07:43.791Z,9.07
2018-05-13T23:10:11.824Z,7.57
2018-05-13T23:12:39.733Z,6.53
2018-05-13T23:15:07.683Z,7.50
2018-05-13T23:17:35.635Z,9.50
2018-05-13T23:20:03.541Z,8.93
2018-05-13T23:22:34.985Z,6.73
2018-05-13T23:25:03.020Z,9.37
2018-05-13T23:27:30.930Z,6.43
2018-05-13T23:29:58.856Z,7.90
2018-05-13T23:32:26.765Z,12.63
2018-05-13T23:34:54.731Z,8.77
2018-05-13T23:37:22.699Z,6.73
2018-05-13T23:39:50.625Z,6.37
2018-05-13T23:42:18.541Z,9.80
2018-05-13T23:44:46.656Z,6.67
2018-05-13T23:47:14.578Z,6.13
2018-05-13T23:49:42.533Z,7.00
2018-05-13T23:52:10.512Z,10.97
2018-05-13T23:54:38.453Z,8.00
2018-05-13T23:57:06.386Z,6.60
2018-05-13T23:59:34.323Z,7.63
